sensor_id;sensor_type;location;lat;lon;timestamp;P1;durP1;ratioP1;P2;durP2;ratioP2
20095;SDS011;10207;50.942;6.900;2023-03-03T00:01:46;47.87;;;21.97;;
20095;SDS011;10207;50.942;6.900;2023-03-03T00:04:12;42.20;;;20.13;;
20095;SDS011;10207;50.942;6.900;2023-03-03T00:06:38;43.07;;;20.33;;
20095;SDS011;10207;50.942;6.900;2023-03-03T00:09:04;43.30;;;22.43;;
20095;SDS011;10207;50.942;6.900;2023-03-03T00:11:30;43.63;;;23.50;;
20095;SDS011;10207;50.942;6.900;2023-03-03T00:13:55;43.87;;;21.60;;
20095;SDS011;10207;50.942;6.900;2023-03-03T00:16:34;49.80;;;22.80;;
20095;SDS011;10207;50.942;6.900;2023-03-03T00:19:00;50.40;;;23.63;;
20095;SDS011;10207;50.942;6.900;2023-03-03T00:21:30;49.67;;;24.17;;
20095;SDS011;10207;50.942;6.900;2023-03-03T00:26:44;47.10;;;24.90;;
20095;SDS011;10207;50.942;6.900;2023-03-03T00:31:48;51.67;;;26.47;;
20095;SDS011;10207;50.942;6.900;2023-03-03T00:36:45;55.30;;;25.67;;
20095;SDS011;10207;50.942;6.900;2023-03-03T00:41:37;56.00;;;28.27;;
20095;SDS011;10207;50.942;6.900;2023-03-03T00:46:53;51.80;;;25.60;;
20095;SDS011;10207;50.942;6.900;2023-03-03T00:49:25;56.13;;;27.33;;
20095;SDS011;10207;50.942;6.900;2023-03-03T00:51:52;54.90;;;26.90;;
20095;SDS011;10207;50.942;6.900;2023-03-03T00:54:18;54.67;;;27.30;;
20095;SDS011;10207;50.942;6.900;2023-03-03T00:56:44;69.57;;;32.13;;
20095;SDS011;10207;50.942;6.900;2023-03-03T00:59:10;61.07;;;29.03;;
20095;SDS011;10207;50.942;6.900;2023-03-03T01:01:37;56.37;;;27.70;;
20095;SDS011;10207;50.942;6.900;2023-03-03T01:04:03;60.97;;;29.73;;
20095;SDS011;10207;50.942;6.900;2023-03-03T01:06:29;57.33;;;28.60;;
20095;SDS011;10207;50.942;6.900;2023-03-03T01:08:55;56.53;;;29.33;;
20095;SDS011;10207;50.942;6.900;2023-03-03T01:11:23;67.60;;;30.90;;
20095;SDS011;10207;50.942;6.900;2023-03-03T01:13:49;63.53;;;29.53;;
20095;SDS011;10207;50.942;6.900;2023-03-03T01:16:15;64.07;;;30.30;;
20095;SDS011;10207;50.942;6.900;2023-03-03T01:18:41;60.77;;;30.40;;
20095;SDS011;10207;50.942;6.900;2023-03-03T01:21:08;59.57;;;29.00;;
20095;SDS011;10207;50.942;6.900;2023-03-03T01:23:34;61.97;;;29.10;;
20095;SDS011;10207;50.942;6.900;2023-03-03T01:26:00;65.30;;;30.13;;
20095;SDS011;10207;50.942;6.900;2023-03-03T01:28:27;61.43;;;29.30;;
20095;SDS011;10207;50.942;6.900;2023-03-03T01:30:53;60.73;;;29.70;;
20095;SDS011;10207;50.942;6.900;2023-03-03T01:33:18;70.43;;;32.00;;
20095;SDS011;10207;50.942;6.900;2023-03-03T01:35:45;57.73;;;28.60;;
20095;SDS011;10207;50.942;6.900;2023-03-03T01:38:12;59.47;;;28.00;;
20095;SDS011;10207;50.942;6.900;2023-03-03T01:40:38;62.67;;;28.80;;
20095;SDS011;10207;50.942;6.900;2023-03-03T01:43:04;52.90;;;25.33;;
20095;SDS011;10207;50.942;6.900;2023-03-03T01:45:31;49.50;;;21.93;;
20095;SDS011;10207;50.942;6.900;2023-03-03T01:48:05;51.87;;;25.43;;
20095;SDS011;10207;50.942;6.900;2023-03-03T01:50:48;62.20;;;30.13;;
20095;SDS011;10207;50.942;6.900;2023-03-03T01:53:19;68.50;;;29.67;;
20095;SDS011;10207;50.942;6.900;2023-03-03T01:55:47;51.83;;;22.57;;
20095;SDS011;10207;50.942;6.900;2023-03-03T01:58:15;66.87;;;30.40;;
20095;SDS011;10207;50.942;6.900;2023-03-03T02:00:43;58.73;;;27.97;;
20095;SDS011;10207;50.942;6.900;2023-03-03T02:03:10;74.23;;;31.47;;
20095;SDS011;10207;50.942;6.900;2023-03-03T02:05:36;67.47;;;30.23;;
20095;SDS011;10207;50.942;6.900;2023-03-03T02:08:04;50.40;;;23.20;;
20095;SDS011;10207;50.942;6.900;2023-03-03T02:10:34;53.23;;;26.87;;
20095;SDS011;10207;50.942;6.900;2023-03-03T02:13:00;55.73;;;26.73;;
20095;SDS011;10207;50.942;6.900;2023-03-03T02:15:27;54.87;;;24.63;;
20095;SDS011;10207;50.942;6.900;2023-03-03T02:17:55;71.37;;;28.90;;
20095;SDS011;10207;50.942;6.900;2023-03-03T02:28:12;66.90;;;29.70;;
20095;SDS011;10207;50.942;6.900;2023-03-03T02:30:38;77.80;;;30.97;;
20095;SDS011;10207;50.942;6.900;2023-03-03T02:33:05;63.53;;;29.07;;
20095;SDS011;10207;50.942;6.900;2023-03-03T02:37:58;77.87;;;32.33;;
20095;SDS011;10207;50.942;6.900;2023-03-03T02:40:29;50.77;;;21.90;;
20095;SDS011;10207;50.942;6.900;2023-03-03T02:42:57;66.17;;;28.80;;
20095;SDS011;10207;50.942;6.900;2023-03-03T02:45:23;69.77;;;31.60;;
20095;SDS011;10207;50.942;6.900;2023-03-03T02:47:50;54.13;;;23.87;;
20095;SDS011;10207;50.942;6.900;2023-03-03T02:50:17;69.73;;;31.30;;
20095;SDS011;10207;50.942;6.900;2023-03-03T02:52:43;74.80;;;32.70;;
20095;SDS011;10207;50.942;6.900;2023-03-03T02:55:09;73.53;;;31.50;;
20095;SDS011;10207;50.942;6.900;2023-03-03T02:57:35;66.60;;;27.90;;
20095;SDS011;10207;50.942;6.900;2023-03-03T03:00:01;67.77;;;31.13;;
20095;SDS011;10207;50.942;6.900;2023-03-03T03:02:28;74.33;;;30.87;;
20095;SDS011;10207;50.942;6.900;2023-03-03T03:04:54;74.87;;;30.63;;
20095;SDS011;10207;50.942;6.900;2023-03-03T03:07:23;49.87;;;21.37;;
20095;SDS011;10207;50.942;6.900;2023-03-03T03:09:49;53.23;;;22.27;;
20095;SDS011;10207;50.942;6.900;2023-03-03T03:12:15;68.13;;;31.60;;
20095;SDS011;10207;50.942;6.900;2023-03-03T03:14:44;72.33;;;30.60;;
20095;SDS011;10207;50.942;6.900;2023-03-03T03:17:10;35.57;;;15.33;;
20095;SDS011;10207;50.942;6.900;2023-03-03T03:19:37;62.10;;;26.70;;
20095;SDS011;10207;50.942;6.900;2023-03-03T03:22:03;50.93;;;22.23;;
20095;SDS011;10207;50.942;6.900;2023-03-03T03:24:32;51.03;;;23.53;;
20095;SDS011;10207;50.942;6.900;2023-03-03T03:27:02;62.37;;;28.53;;
20095;SDS011;10207;50.942;6.900;2023-03-03T03:29:28;51.33;;;23.50;;
20095;SDS011;10207;50.942;6.900;2023-03-03T03:31:54;28.57;;;14.77;;
20095;SDS011;10207;50.942;6.900;2023-03-03T03:34:20;49.27;;;21.67;;
20095;SDS011;10207;50.942;6.900;2023-03-03T03:36:48;50.80;;;23.27;;
20095;SDS011;10207;50.942;6.900;2023-03-03T03:39:16;55.87;;;25.73;;
20095;SDS011;10207;50.942;6.900;2023-03-03T03:41:45;50.50;;;21.37;;
20095;SDS011;10207;50.942;6.900;2023-03-03T03:44:11;44.47;;;18.93;;
20095;SDS011;10207;50.942;6.900;2023-03-03T03:46:37;67.17;;;28.70;;
20095;SDS011;10207;50.942;6.900;2023-03-03T03:49:03;62.77;;;29.80;;
20095;SDS011;10207;50.942;6.900;2023-03-03T03:51:29;39.83;;;19.27;;
20095;SDS011;10207;50.942;6.900;2023-03-03T03:53:55;48.60;;;21.60;;
20095;SDS011;10207;50.942;6.900;2023-03-03T03:56:21;46.23;;;20.93;;
20095;SDS011;10207;50.942;6.900;2023-03-03T03:58:51;45.40;;;20.73;;
20095;SDS011;10207;50.942;6.900;2023-03-03T04:01:17;63.53;;;30.10;;
20095;SDS011;10207;50.942;6.900;2023-03-03T04:03:47;54.63;;;27.00;;
20095;SDS011;10207;50.942;6.900;2023-03-03T04:06:17;64.60;;;28.10;;
20095;SDS011;10207;50.942;6.900;2023-03-03T04:08:43;57.97;;;25.40;;
20095;SDS011;10207;50.942;6.900;2023-03-03T04:11:09;58.53;;;27.30;;
20095;SDS011;10207;50.942;6.900;2023-03-03T04:13:36;60.10;;;28.93;;
20095;SDS011;10207;50.942;6.900;2023-03-03T04:16:05;64.47;;;26.60;;
20095;SDS011;10207;50.942;6.900;2023-03-03T04:18:31;64.53;;;26.47;;
20095;SDS011;10207;50.942;6.900;2023-03-03T04:20:57;55.00;;;25.30;;
20095;SDS011;10207;50.942;6.900;2023-03-03T04:23:25;58.03;;;26.50;;
20095;SDS011;10207;50.942;6.900;2023-03-03T04:25:51;52.93;;;22.70;;
20095;SDS011;10207;50.942;6.900;2023-03-03T04:28:18;62.90;;;27.40;;
20095;SDS011;10207;50.942;6.900;2023-03-03T04:30:44;63.23;;;27.70;;
20095;SDS011;10207;50.942;6.900;2023-03-03T04:33:11;60.03;;;25.63;;
20095;SDS011;10207;50.942;6.900;2023-03-03T04:35:39;53.47;;;25.73;;
20095;SDS011;10207;50.942;6.900;2023-03-03T04:38:05;53.37;;;24.87;;
20095;SDS011;10207;50.942;6.900;2023-03-03T04:40:32;49.57;;;24.03;;
20095;SDS011;10207;50.942;6.900;2023-03-03T04:43:00;63.73;;;26.93;;
20095;SDS011;10207;50.942;6.900;2023-03-03T04:45:26;51.60;;;23.90;;
20095;SDS011;10207;50.942;6.900;2023-03-03T04:47:52;55.57;;;24.80;;
20095;SDS011;10207;50.942;6.900;2023-03-03T04:50:18;37.60;;;16.73;;
20095;SDS011;10207;50.942;6.900;2023-03-03T04:52:45;44.23;;;20.47;;
20095;SDS011;10207;50.942;6.900;2023-03-03T04:55:12;55.27;;;24.40;;
20095;SDS011;10207;50.942;6.900;2023-03-03T04:57:39;51.83;;;21.40;;
20095;SDS011;10207;50.942;6.900;2023-03-03T05:00:05;27.67;;;14.73;;
20095;SDS011;10207;50.942;6.900;2023-03-03T05:02:31;42.97;;;18.27;;
20095;SDS011;10207;50.942;6.900;2023-03-03T05:04:58;42.23;;;21.17;;
20095;SDS011;10207;50.942;6.900;2023-03-03T05:07:24;55.57;;;23.43;;
20095;SDS011;10207;50.942;6.900;2023-03-03T05:09:50;43.40;;;18.60;;
20095;SDS011;10207;50.942;6.900;2023-03-03T05:12:16;47.70;;;21.83;;
20095;SDS011;10207;50.942;6.900;2023-03-03T05:14:42;48.93;;;22.77;;
20095;SDS011;10207;50.942;6.900;2023-03-03T05:17:08;42.73;;;20.90;;
20095;SDS011;10207;50.942;6.900;2023-03-03T05:19:34;45.30;;;20.43;;
20095;SDS011;10207;50.942;6.900;2023-03-03T05:22:00;46.37;;;22.20;;
20095;SDS011;10207;50.942;6.900;2023-03-03T05:24:26;51.13;;;22.33;;
20095;SDS011;10207;50.942;6.900;2023-03-03T05:26:52;53.57;;;23.73;;
20095;SDS011;10207;50.942;6.900;2023-03-03T05:29:18;52.60;;;24.10;;
20095;SDS011;10207;50.942;6.900;2023-03-03T05:31:44;43.03;;;21.00;;
20095;SDS011;10207;50.942;6.900;2023-03-03T05:34:10;48.90;;;22.73;;
20095;SDS011;10207;50.942;6.900;2023-03-03T05:36:36;44.03;;;22.70;;
20095;SDS011;10207;50.942;6.900;2023-03-03T05:39:02;48.73;;;22.40;;
20095;SDS011;10207;50.942;6.900;2023-03-03T05:41:28;56.77;;;24.50;;
20095;SDS011;10207;50.942;6.900;2023-03-03T05:43:54;50.23;;;23.20;;
20095;SDS011;10207;50.942;6.900;2023-03-03T05:46:20;46.20;;;20.80;;
20095;SDS011;10207;50.942;6.900;2023-03-03T05:48:46;48.73;;;22.37;;
20095;SDS011;10207;50.942;6.900;2023-03-03T05:51:12;49.17;;;22.73;;
20095;SDS011;10207;50.942;6.900;2023-03-03T05:53:38;42.53;;;20.57;;
20095;SDS011;10207;50.942;6.900;2023-03-03T05:56:04;48.43;;;22.40;;
20095;SDS011;10207;50.942;6.900;2023-03-03T05:58:30;45.37;;;23.43;;
20095;SDS011;10207;50.942;6.900;2023-03-03T06:00:56;48.40;;;22.37;;
20095;SDS011;10207;50.942;6.900;2023-03-03T06:03:21;48.33;;;20.57;;
20095;SDS011;10207;50.942;6.900;2023-03-03T06:05:48;48.80;;;23.63;;
20095;SDS011;10207;50.942;6.900;2023-03-03T06:08:14;45.03;;;22.80;;
20095;SDS011;10207;50.942;6.900;2023-03-03T06:10:39;49.30;;;21.83;;
20095;SDS011;10207;50.942;6.900;2023-03-03T06:13:08;50.60;;;22.83;;
20095;SDS011;10207;50.942;6.900;2023-03-03T06:15:34;49.23;;;21.50;;
20095;SDS011;10207;50.942;6.900;2023-03-03T06:18:00;43.40;;;22.30;;
20095;SDS011;10207;50.942;6.900;2023-03-03T06:20:26;54.07;;;24.33;;
20095;SDS011;10207;50.942;6.900;2023-03-03T06:22:52;47.70;;;23.10;;
20095;SDS011;10207;50.942;6.900;2023-03-03T06:25:18;55.13;;;22.53;;
20095;SDS011;10207;50.942;6.900;2023-03-03T06:27:44;67.83;;;28.43;;
20095;SDS011;10207;50.942;6.900;2023-03-03T06:30:10;55.97;;;24.77;;
20095;SDS011;10207;50.942;6.900;2023-03-03T06:32:36;57.10;;;28.07;;
20095;SDS011;10207;50.942;6.900;2023-03-03T06:35:02;57.03;;;25.20;;
20095;SDS011;10207;50.942;6.900;2023-03-03T06:37:28;56.83;;;27.00;;
20095;SDS011;10207;50.942;6.900;2023-03-03T06:39:54;63.17;;;27.67;;
20095;SDS011;10207;50.942;6.900;2023-03-03T06:42:20;50.10;;;20.83;;
20095;SDS011;10207;50.942;6.900;2023-03-03T06:44:46;48.13;;;22.07;;
20095;SDS011;10207;50.942;6.900;2023-03-03T06:47:12;66.27;;;23.53;;
20095;SDS011;10207;50.942;6.900;2023-03-03T06:49:38;51.07;;;22.20;;
20095;SDS011;10207;50.942;6.900;2023-03-03T06:52:14;57.63;;;23.20;;
20095;SDS011;10207;50.942;6.900;2023-03-03T06:54:42;45.13;;;18.93;;
20095;SDS011;10207;50.942;6.900;2023-03-03T06:59:47;67.40;;;28.27;;
20095;SDS011;10207;50.942;6.900;2023-03-03T07:02:16;47.27;;;20.53;;
20095;SDS011;10207;50.942;6.900;2023-03-03T07:04:43;58.03;;;25.53;;
20095;SDS011;10207;50.942;6.900;2023-03-03T07:07:23;64.37;;;28.43;;
20095;SDS011;10207;50.942;6.900;2023-03-03T07:09:50;55.77;;;25.87;;
20095;SDS011;10207;50.942;6.900;2023-03-03T07:12:18;50.93;;;23.97;;
20095;SDS011;10207;50.942;6.900;2023-03-03T07:14:45;49.20;;;22.47;;
20095;SDS011;10207;50.942;6.900;2023-03-03T07:17:22;38.77;;;18.10;;
20095;SDS011;10207;50.942;6.900;2023-03-03T07:19:49;53.97;;;24.07;;
20095;SDS011;10207;50.942;6.900;2023-03-03T07:22:19;51.87;;;22.93;;
20095;SDS011;10207;50.942;6.900;2023-03-03T07:24:46;52.20;;;22.13;;
20095;SDS011;10207;50.942;6.900;2023-03-03T07:29:48;42.57;;;20.93;;
20095;SDS011;10207;50.942;6.900;2023-03-03T07:34:43;41.77;;;21.07;;
20095;SDS011;10207;50.942;6.900;2023-03-03T07:37:19;52.33;;;23.07;;
20095;SDS011;10207;50.942;6.900;2023-03-03T07:39:47;51.17;;;23.23;;
20095;SDS011;10207;50.942;6.900;2023-03-03T07:42:31;43.77;;;20.77;;
20095;SDS011;10207;50.942;6.900;2023-03-03T07:45:25;49.97;;;24.53;;
20095;SDS011;10207;50.942;6.900;2023-03-03T07:47:53;45.27;;;21.20;;
20095;SDS011;10207;50.942;6.900;2023-03-03T07:50:21;49.03;;;23.53;;
20095;SDS011;10207;50.942;6.900;2023-03-03T07:52:50;47.20;;;21.53;;
20095;SDS011;10207;50.942;6.900;2023-03-03T07:55:26;51.17;;;24.50;;
20095;SDS011;10207;50.942;6.900;2023-03-03T07:57:55;50.77;;;22.20;;
20095;SDS011;10207;50.942;6.900;2023-03-03T08:02:54;40.80;;;20.17;;
20095;SDS011;10207;50.942;6.900;2023-03-03T08:07:54;50.53;;;22.23;;
20095;SDS011;10207;50.942;6.900;2023-03-03T08:10:37;43.67;;;21.00;;
20095;SDS011;10207;50.942;6.900;2023-03-03T08:13:12;51.43;;;23.33;;
20095;SDS011;10207;50.942;6.900;2023-03-03T08:15:40;44.73;;;21.50;;
20095;SDS011;10207;50.942;6.900;2023-03-03T08:18:13;49.33;;;22.87;;
20095;SDS011;10207;50.942;6.900;2023-03-03T08:20:41;42.40;;;19.90;;
20095;SDS011;10207;50.942;6.900;2023-03-03T08:23:09;44.73;;;19.83;;
20095;SDS011;10207;50.942;6.900;2023-03-03T08:25:35;54.13;;;23.33;;
20095;SDS011;10207;50.942;6.900;2023-03-03T08:28:01;48.97;;;23.57;;
20095;SDS011;10207;50.942;6.900;2023-03-03T08:30:27;44.10;;;21.67;;
20095;SDS011;10207;50.942;6.900;2023-03-03T08:32:53;44.13;;;20.83;;
20095;SDS011;10207;50.942;6.900;2023-03-03T08:35:19;51.63;;;23.60;;
20095;SDS011;10207;50.942;6.900;2023-03-03T08:37:45;45.20;;;22.57;;
20095;SDS011;10207;50.942;6.900;2023-03-03T08:40:11;57.03;;;24.03;;
20095;SDS011;10207;50.942;6.900;2023-03-03T08:42:37;47.80;;;21.17;;
20095;SDS011;10207;50.942;6.900;2023-03-03T08:45:03;48.97;;;20.20;;
20095;SDS011;10207;50.942;6.900;2023-03-03T08:47:29;44.33;;;22.67;;
20095;SDS011;10207;50.942;6.900;2023-03-03T08:49:55;38.33;;;18.60;;
20095;SDS011;10207;50.942;6.900;2023-03-03T08:52:21;34.70;;;15.73;;
20095;SDS011;10207;50.942;6.900;2023-03-03T08:54:46;40.47;;;19.67;;
20095;SDS011;10207;50.942;6.900;2023-03-03T08:57:12;41.30;;;17.30;;
20095;SDS011;10207;50.942;6.900;2023-03-03T08:59:38;39.60;;;18.50;;
20095;SDS011;10207;50.942;6.900;2023-03-03T09:02:05;42.00;;;20.13;;
20095;SDS011;10207;50.942;6.900;2023-03-03T09:04:31;37.33;;;18.17;;
20095;SDS011;10207;50.942;6.900;2023-03-03T09:06:57;38.70;;;18.23;;
20095;SDS011;10207;50.942;6.900;2023-03-03T09:09:23;40.37;;;19.27;;
20095;SDS011;10207;50.942;6.900;2023-03-03T09:11:49;32.53;;;14.73;;
20095;SDS011;10207;50.942;6.900;2023-03-03T09:14:17;32.13;;;15.30;;
20095;SDS011;10207;50.942;6.900;2023-03-03T09:16:45;31.70;;;16.63;;
20095;SDS011;10207;50.942;6.900;2023-03-03T09:21:45;31.47;;;14.23;;
20095;SDS011;10207;50.942;6.900;2023-03-03T09:24:24;41.00;;;19.10;;
20095;SDS011;10207;50.942;6.900;2023-03-03T09:26:50;38.43;;;18.00;;
20095;SDS011;10207;50.942;6.900;2023-03-03T09:29:22;39.63;;;17.57;;
20095;SDS011;10207;50.942;6.900;2023-03-03T09:37:01;31.30;;;15.07;;
20095;SDS011;10207;50.942;6.900;2023-03-03T09:39:30;34.53;;;17.37;;
20095;SDS011;10207;50.942;6.900;2023-03-03T09:47:01;35.10;;;16.13;;
20095;SDS011;10207;50.942;6.900;2023-03-03T09:49:34;32.07;;;16.27;;
20095;SDS011;10207;50.942;6.900;2023-03-03T09:57:14;34.35;;;16.35;;
20095;SDS011;10207;50.942;6.900;2023-03-03T10:17:26;39.00;;;17.30;;
20095;SDS011;10207;50.942;6.900;2023-03-03T10:22:33;34.70;;;16.07;;
20095;SDS011;10207;50.942;6.900;2023-03-03T10:25:11;41.30;;;17.17;;
20095;SDS011;10207;50.942;6.900;2023-03-03T10:27:44;35.07;;;14.77;;
20095;SDS011;10207;50.942;6.900;2023-03-03T10:30:16;39.47;;;18.20;;
20095;SDS011;10207;50.942;6.900;2023-03-03T10:56:00;40.65;;;20.65;;
20095;SDS011;10207;50.942;6.900;2023-03-03T11:08:35;41.67;;;19.20;;
20095;SDS011;10207;50.942;6.900;2023-03-03T11:11:06;40.25;;;18.08;;
20095;SDS011;10207;50.942;6.900;2023-03-03T11:21:32;41.50;;;19.63;;
20095;SDS011;10207;50.942;6.900;2023-03-03T11:29:21;27.15;;;11.57;;
20095;SDS011;10207;50.942;6.900;2023-03-03T11:37:01;33.65;;;15.55;;
20095;SDS011;10207;50.942;6.900;2023-03-03T11:39:28;36.70;;;17.17;;
20095;SDS011;10207;50.942;6.900;2023-03-03T11:49:42;32.35;;;14.90;;
20095;SDS011;10207;50.942;6.900;2023-03-03T11:52:23;36.58;;;17.52;;
20095;SDS011;10207;50.942;6.900;2023-03-03T12:03:12;42.13;;;21.00;;
20095;SDS011;10207;50.942;6.900;2023-03-03T12:08:21;47.28;;;21.27;;
20095;SDS011;10207;50.942;6.900;2023-03-03T12:10:53;53.10;;;23.95;;
20095;SDS011;10207;50.942;6.900;2023-03-03T12:13:28;43.50;;;22.13;;
20095;SDS011;10207;50.942;6.900;2023-03-03T12:16:02;49.47;;;23.55;;
20095;SDS011;10207;50.942;6.900;2023-03-03T12:18:34;37.17;;;18.73;;
20095;SDS011;10207;50.942;6.900;2023-03-03T12:26:10;39.78;;;17.83;;
20095;SDS011;10207;50.942;6.900;2023-03-03T12:28:41;30.98;;;15.07;;
20095;SDS011;10207;50.942;6.900;2023-03-03T12:31:20;33.85;;;14.75;;
20095;SDS011;10207;50.942;6.900;2023-03-03T12:33:57;36.83;;;15.95;;
20095;SDS011;10207;50.942;6.900;2023-03-03T12:36:42;35.60;;;16.15;;
20095;SDS011;10207;50.942;6.900;2023-03-03T12:42:18;29.40;;;12.85;;
20095;SDS011;10207;50.942;6.900;2023-03-03T12:44:53;31.05;;;14.80;;
20095;SDS011;10207;50.942;6.900;2023-03-03T12:47:24;35.08;;;16.00;;
20095;SDS011;10207;50.942;6.900;2023-03-03T12:55:02;31.10;;;13.55;;
20095;SDS011;10207;50.942;6.900;2023-03-03T12:57:33;37.88;;;15.85;;
20095;SDS011;10207;50.942;6.900;2023-03-03T13:04:57;30.63;;;14.23;;
20095;SDS011;10207;50.942;6.900;2023-03-03T13:10:17;33.72;;;15.35;;
20095;SDS011;10207;50.942;6.900;2023-03-03T13:12:54;30.85;;;12.75;;
20095;SDS011;10207;50.942;6.900;2023-03-03T13:15:26;36.42;;;16.33;;
20095;SDS011;10207;50.942;6.900;2023-03-03T13:18:18;31.77;;;14.93;;
20095;SDS011;10207;50.942;6.900;2023-03-03T13:20:52;35.90;;;17.92;;
20095;SDS011;10207;50.942;6.900;2023-03-03T13:31:33;33.90;;;13.50;;
20095;SDS011;10207;50.942;6.900;2023-03-03T13:34:01;40.28;;;15.18;;
20095;SDS011;10207;50.942;6.900;2023-03-03T13:36:36;40.65;;;17.38;;
20095;SDS011;10207;50.942;6.900;2023-03-03T13:39:12;45.63;;;18.27;;
20095;SDS011;10207;50.942;6.900;2023-03-03T13:41:43;41.90;;;18.48;;
20095;SDS011;10207;50.942;6.900;2023-03-03T13:46:39;38.33;;;18.52;;
20095;SDS011;10207;50.942;6.900;2023-03-03T13:49:10;48.85;;;20.80;;
20095;SDS011;10207;50.942;6.900;2023-03-03T13:59:29;47.78;;;18.55;;
20095;SDS011;10207;50.942;6.900;2023-03-03T14:04:56;44.60;;;17.48;;
20095;SDS011;10207;50.942;6.900;2023-03-03T14:15:02;48.50;;;19.67;;
20095;SDS011;10207;50.942;6.900;2023-03-03T14:17:33;53.63;;;22.85;;
20095;SDS011;10207;50.942;6.900;2023-03-03T14:22:39;46.63;;;17.77;;
20095;SDS011;10207;50.942;6.900;2023-03-03T14:25:07;51.80;;;18.80;;
20095;SDS011;10207;50.942;6.900;2023-03-03T14:27:35;50.90;;;19.38;;
20095;SDS011;10207;50.942;6.900;2023-03-03T14:35:31;50.88;;;19.30;;
20095;SDS011;10207;50.942;6.900;2023-03-03T14:38:02;64.30;;;22.42;;
20095;SDS011;10207;50.942;6.900;2023-03-03T14:40:29;53.45;;;22.83;;
20095;SDS011;10207;50.942;6.900;2023-03-03T14:42:58;57.38;;;22.50;;
20095;SDS011;10207;50.942;6.900;2023-03-03T14:45:37;63.55;;;22.17;;
20095;SDS011;10207;50.942;6.900;2023-03-03T14:50:37;38.92;;;17.10;;
20095;SDS011;10207;50.942;6.900;2023-03-03T14:53:09;56.15;;;21.10;;
20095;SDS011;10207;50.942;6.900;2023-03-03T14:55:36;44.97;;;16.13;;
20095;SDS011;10207;50.942;6.900;2023-03-03T14:58:04;50.35;;;19.67;;
20095;SDS011;10207;50.942;6.900;2023-03-03T15:00:32;54.58;;;21.35;;
20095;SDS011;10207;50.942;6.900;2023-03-03T15:05:25;44.83;;;15.43;;
20095;SDS011;10207;50.942;6.900;2023-03-03T15:07:53;41.65;;;15.32;;
20095;SDS011;10207;50.942;6.900;2023-03-03T15:10:26;45.95;;;18.08;;
20095;SDS011;10207;50.942;6.900;2023-03-03T15:12:52;55.92;;;20.65;;
20095;SDS011;10207;50.942;6.900;2023-03-03T15:15:19;44.80;;;19.75;;
20095;SDS011;10207;50.942;6.900;2023-03-03T15:41:36;31.83;;;13.27;;
20095;SDS011;10207;50.942;6.900;2023-03-03T15:44:11;38.87;;;16.90;;
20095;SDS011;10207;50.942;6.900;2023-03-03T15:56:47;30.95;;;12.68;;
20095;SDS011;10207;50.942;6.900;2023-03-03T16:01:47;42.65;;;18.20;;
20095;SDS011;10207;50.942;6.900;2023-03-03T16:04:35;41.50;;;16.92;;
20095;SDS011;10207;50.942;6.900;2023-03-03T16:10:03;40.87;;;17.13;;
20095;SDS011;10207;50.942;6.900;2023-03-03T16:30:23;40.08;;;16.05;;
20095;SDS011;10207;50.942;6.900;2023-03-03T16:32:52;43.53;;;17.73;;
20095;SDS011;10207;50.942;6.900;2023-03-03T16:35:22;36.80;;;16.02;;
20095;SDS011;10207;50.942;6.900;2023-03-03T16:42:40;37.58;;;15.75;;
20095;SDS011;10207;50.942;6.900;2023-03-03T16:52:36;38.93;;;16.97;;
20095;SDS011;10207;50.942;6.900;2023-03-03T16:55:07;43.42;;;16.08;;
20095;SDS011;10207;50.942;6.900;2023-03-03T17:00:05;39.47;;;15.10;;
20095;SDS011;10207;50.942;6.900;2023-03-03T17:07:38;42.50;;;17.70;;
20095;SDS011;10207;50.942;6.900;2023-03-03T17:10:26;46.43;;;18.27;;
20095;SDS011;10207;50.942;6.900;2023-03-03T17:36:23;67.10;;;30.27;;
20095;SDS011;10207;50.942;6.900;2023-03-03T17:39:07;68.57;;;31.13;;
20095;SDS011;10207;50.942;6.900;2023-03-03T17:46:45;73.63;;;32.10;;
20095;SDS011;10207;50.942;6.900;2023-03-03T17:54:31;82.43;;;35.57;;
20095;SDS011;10207;50.942;6.900;2023-03-03T17:57:08;82.97;;;33.93;;
20095;SDS011;10207;50.942;6.900;2023-03-03T17:59:44;81.50;;;35.80;;
20095;SDS011;10207;50.942;6.900;2023-03-03T18:07:32;88.67;;;36.80;;
20095;SDS011;10207;50.942;6.900;2023-03-03T18:12:44;82.80;;;36.00;;
20095;SDS011;10207;50.942;6.900;2023-03-03T18:17:46;84.20;;;35.60;;
20095;SDS011;10207;50.942;6.900;2023-03-03T18:20:27;91.63;;;36.67;;
20095;SDS011;10207;50.942;6.900;2023-03-03T18:22:56;96.90;;;37.27;;
20095;SDS011;10207;50.942;6.900;2023-03-03T18:25:23;90.27;;;36.83;;
20095;SDS011;10207;50.942;6.900;2023-03-03T18:30:25;88.57;;;36.67;;
20095;SDS011;10207;50.942;6.900;2023-03-03T18:37:49;96.67;;;38.17;;
20095;SDS011;10207;50.942;6.900;2023-03-03T18:42:44;95.33;;;39.13;;
20095;SDS011;10207;50.942;6.900;2023-03-03T18:50:31;98.93;;;42.13;;
20095;SDS011;10207;50.942;6.900;2023-03-03T18:55:46;107.73;;;39.43;;
20095;SDS011;10207;50.942;6.900;2023-03-03T19:00:46;117.93;;;44.17;;
20095;SDS011;10207;50.942;6.900;2023-03-03T19:03:27;107.47;;;41.57;;
20095;SDS011;10207;50.942;6.900;2023-03-03T19:05:54;103.60;;;39.00;;
20095;SDS011;10207;50.942;6.900;2023-03-03T19:11:00;109.03;;;41.67;;
20095;SDS011;10207;50.942;6.900;2023-03-03T19:24:24;118.00;;;45.00;;
20095;SDS011;10207;50.942;6.900;2023-03-03T19:31:41;121.00;;;44.97;;
20095;SDS011;10207;50.942;6.900;2023-03-03T19:34:14;129.93;;;46.93;;
20095;SDS011;10207;50.942;6.900;2023-03-03T19:36:44;120.73;;;47.60;;
20095;SDS011;10207;50.942;6.900;2023-03-03T19:42:16;124.50;;;46.40;;
20095;SDS011;10207;50.942;6.900;2023-03-03T19:44:56;127.10;;;46.67;;
20095;SDS011;10207;50.942;6.900;2023-03-03T19:57:43;123.20;;;46.67;;
20095;SDS011;10207;50.942;6.900;2023-03-03T20:00:14;119.87;;;47.27;;
20095;SDS011;10207;50.942;6.900;2023-03-03T20:05:35;131.67;;;51.00;;
20095;SDS011;10207;50.942;6.900;2023-03-03T20:08:09;131.97;;;49.17;;
20095;SDS011;10207;50.942;6.900;2023-03-03T20:10:37;130.03;;;46.57;;
20095;SDS011;10207;50.942;6.900;2023-03-03T20:26:11;121.17;;;45.87;;
20095;SDS011;10207;50.942;6.900;2023-03-03T20:31:30;121.43;;;45.33;;
20095;SDS011;10207;50.942;6.900;2023-03-03T20:39:07;128.80;;;51.60;;
20095;SDS011;10207;50.942;6.900;2023-03-03T21:02:01;115.93;;;46.67;;
20095;SDS011;10207;50.942;6.900;2023-03-03T21:04:25;110.90;;;43.70;;
20095;SDS011;10207;50.942;6.900;2023-03-03T21:06:51;107.57;;;45.63;;
20095;SDS011;10207;50.942;6.900;2023-03-03T21:09:21;118.80;;;45.07;;
20095;SDS011;10207;50.942;6.900;2023-03-03T21:11:47;112.27;;;44.63;;
20095;SDS011;10207;50.942;6.900;2023-03-03T21:14:18;108.93;;;44.40;;
20095;SDS011;10207;50.942;6.900;2023-03-03T21:16:44;114.67;;;44.73;;
20095;SDS011;10207;50.942;6.900;2023-03-03T21:19:11;111.77;;;44.63;;
20095;SDS011;10207;50.942;6.900;2023-03-03T21:21:38;108.17;;;44.47;;
20095;SDS011;10207;50.942;6.900;2023-03-03T21:24:05;108.97;;;43.67;;
20095;SDS011;10207;50.942;6.900;2023-03-03T21:31:49;101.55;;;40.50;;
20095;SDS011;10207;50.942;6.900;2023-03-03T21:36:45;107.97;;;43.57;;
20095;SDS011;10207;50.942;6.900;2023-03-03T21:39:22;107.67;;;42.43;;
20095;SDS011;10207;50.942;6.900;2023-03-03T21:41:49;102.37;;;42.80;;
20095;SDS011;10207;50.942;6.900;2023-03-03T21:44:27;109.60;;;44.40;;